createdAt,value
2017-07-20T00:01:19.324Z,20.7
2017-07-20T00:02:19.050Z,20.7
2017-07-20T00:03:19.385Z,20.79
2017-07-20T00:04:19.408Z,20.59
2017-07-20T00:05:34.037Z,20.57
2017-07-20T00:06:19.467Z,20.61
2017-07-20T00:08:19.512Z,20.52
2017-07-20T00:09:19.216Z,20.61
2017-07-20T00:10:19.548Z,20.61
2017-07-20T00:12:19.614Z,20.7
2017-07-20T00:13:19.653Z,20.66
2017-07-20T00:14:19.639Z,20.61
2017-07-20T00:15:19.704Z,20.59
2017-07-20T00:16:19.713Z,20.58
2017-07-20T00:17:19.746Z,20.58
2017-07-20T00:18:19.765Z,20.55
2017-07-20T00:19:19.794Z,20.52
2017-07-20T00:20:34.418Z,20.59
2017-07-20T00:21:19.536Z,20.55
2017-07-20T00:22:19.866Z,20.57
2017-07-20T00:23:34.479Z,20.52
2017-07-20T00:24:19.935Z,20.54
2017-07-20T00:25:19.938Z,20.36
2017-07-20T00:27:19.999Z,20.48
2017-07-20T00:28:20.011Z,20.51
2017-07-20T00:29:34.647Z,20.55
2017-07-20T00:30:20.064Z,20.57
2017-07-20T00:31:20.080Z,20.54
2017-07-20T00:32:20.135Z,20.39
2017-07-20T00:33:34.746Z,20.36
2017-07-20T00:34:20.172Z,20.42
2017-07-20T00:35:20.207Z,20.42
2017-07-20T00:36:34.814Z,20.39
2017-07-20T00:37:20.269Z,20.39
2017-07-20T00:38:20.286Z,20.48
2017-07-20T00:39:20.288Z,20.43
2017-07-20T00:40:20.323Z,20.33
2017-07-20T00:41:20.343Z,20.42
2017-07-20T00:42:20.389Z,20.55
2017-07-20T00:43:20.391Z,20.55
2017-07-20T00:44:20.131Z,20.58
2017-07-20T00:45:35.058Z,20.59
2017-07-20T00:46:20.477Z,20.5
2017-07-20T00:47:20.499Z,20.5
2017-07-20T00:48:20.531Z,20.47
2017-07-20T00:50:20.585Z,20.38
2017-07-20T00:51:20.306Z,20.41
2017-07-20T00:52:35.236Z,20.42
2017-07-20T00:53:20.684Z,20.43
2017-07-20T00:54:20.379Z,20.28
2017-07-20T00:55:20.713Z,20.36
2017-07-20T00:56:20.745Z,20.32
2017-07-20T00:57:20.785Z,20.21
2017-07-20T00:58:20.802Z,20.33
2017-07-20T00:59:20.503Z,20.24
2017-07-20T01:00:20.850Z,20.33
2017-07-20T01:01:20.852Z,20.32
2017-07-20T01:02:20.907Z,20.23
2017-07-20T01:03:20.613Z,20.29
2017-07-20T01:04:20.942Z,20.24
2017-07-20T01:05:20.950Z,20.23
2017-07-20T01:06:21.005Z,20.36
2017-07-20T01:07:21.003Z,20.21
2017-07-20T01:08:35.646Z,20.1
2017-07-20T01:09:21.082Z,20.14
2017-07-20T01:10:20.794Z,20.23
2017-07-20T01:11:21.127Z,20.18
2017-07-20T01:12:21.155Z,20.16
2017-07-20T01:13:21.174Z,20.2
2017-07-20T01:14:20.887Z,20.14
2017-07-20T01:15:21.230Z,20.2
2017-07-20T01:16:20.939Z,20.17
2017-07-20T01:17:21.264Z,20.14
2017-07-20T01:18:21.314Z,20.2
2017-07-20T01:19:21.335Z,20.24
2017-07-20T01:20:21.363Z,20.16
2017-07-20T01:21:21.389Z,20.14
2017-07-20T01:23:36.035Z,20.1
2017-07-20T01:24:21.488Z,20.2
2017-07-20T01:25:21.488Z,20.17
2017-07-20T01:26:21.508Z,20.23
2017-07-20T01:27:21.522Z,20.18
2017-07-20T01:28:21.570Z,20.14
2017-07-20T01:30:21.617Z,20.16
2017-07-20T01:31:21.646Z,20.23
2017-07-20T01:32:21.665Z,20.26
2017-07-20T01:33:21.677Z,20.13
2017-07-20T01:34:21.725Z,20.18
2017-07-20T01:35:21.733Z,20.28
2017-07-20T01:36:21.769Z,20.33
2017-07-20T01:37:21.783Z,20.35
2017-07-20T01:38:21.826Z,20.38
2017-07-20T01:39:36.432Z,20.33
2017-07-20T01:40:21.852Z,20.32
2017-07-20T01:41:21.890Z,20.36
2017-07-20T01:42:21.924Z,20.41
2017-07-20T01:43:21.953Z,20.26
2017-07-20T01:44:21.961Z,20.31
2017-07-20T01:45:21.684Z,20.28
2017-07-20T01:46:22.026Z,20.35
2017-07-20T01:47:22.065Z,20.29
2017-07-20T01:49:22.107Z,20.28
2017-07-20T01:50:22.154Z,20.2
2017-07-20T01:51:22.148Z,20.18
2017-07-20T01:52:22.169Z,20.24
2017-07-20T01:53:22.194Z,20.32
2017-07-20T01:54:21.913Z,20.28
2017-07-20T01:55:36.853Z,20.26
2017-07-20T01:56:22.291Z,20.36
2017-07-20T01:57:22.304Z,20.18
2017-07-20T01:58:22.326Z,20.21
2017-07-20T01:59:22.058Z,20.21
2017-07-20T02:00:22.074Z,20.32
2017-07-20T02:01:22.085Z,20.32
2017-07-20T02:02:22.442Z,20.24
2017-07-20T02:03:22.445Z,20.21
2017-07-20T02:04:22.180Z,20.21
2017-07-20T02:05:37.110Z,20.23
2017-07-20T02:06:22.540Z,20.24
2017-07-20T02:07:22.574Z,20.21
2017-07-20T02:08:22.580Z,20.24
2017-07-20T02:09:22.608Z,20.23
2017-07-20T02:10:37.232Z,20.23
2017-07-20T02:11:37.260Z,20.24
2017-07-20T02:12:22.687Z,20.21
2017-07-20T02:13:22.721Z,20.32
2017-07-20T02:14:22.749Z,20.28
2017-07-20T02:15:22.772Z,20.23
2017-07-20T02:16:22.476Z,20.39
2017-07-20T02:17:22.809Z,20.41
2017-07-20T02:18:22.859Z,20.41
2017-07-20T02:19:22.864Z,20.36
2017-07-20T02:20:22.899Z,20.32
2017-07-20T02:21:22.909Z,20.2
2017-07-20T02:23:22.952Z,20.23
2017-07-20T02:24:23.004Z,20.26
2017-07-20T02:25:23.009Z,20.2
2017-07-20T02:26:23.027Z,20.26
2017-07-20T02:27:37.670Z,20.08
2017-07-20T02:28:23.102Z,20.11
2017-07-20T02:29:23.124Z,20.1
2017-07-20T02:30:37.755Z,20.2
2017-07-20T02:31:23.173Z,20.21
2017-07-20T02:32:23.199Z,20.33
2017-07-20T02:33:23.270Z,20.26
2017-07-20T02:34:23.250Z,20.41
2017-07-20T02:35:23.286Z,20.43
2017-07-20T02:36:23.304Z,20.42
2017-07-20T02:38:23.403Z,20.39
2017-07-20T02:39:23.388Z,20.39
2017-07-20T02:40:23.399Z,20.29
2017-07-20T02:41:38.030Z,20.29
2017-07-20T02:43:38.079Z,20.35
2017-07-20T02:44:23.534Z,20.39
2017-07-20T02:46:23.573Z,20.33
2017-07-20T02:47:23.272Z,20.39
2017-07-20T02:48:23.617Z,20.41
2017-07-20T02:49:23.628Z,20.42
2017-07-20T02:50:23.364Z,20.42
2017-07-20T02:51:23.692Z,20.33
2017-07-20T02:52:38.315Z,20.51
2017-07-20T02:53:23.420Z,20.5
2017-07-20T02:54:38.367Z,20.41
2017-07-20T02:55:23.787Z,20.48
2017-07-20T02:56:23.518Z,20.39
2017-07-20T02:57:23.830Z,20.43
2017-07-20T02:58:38.470Z,20.42
2017-07-20T02:59:23.589Z,20.41
2017-07-20T03:00:23.612Z,20.41
2017-07-20T03:02:23.953Z,20.39
2017-07-20T03:03:38.603Z,20.35
2017-07-20T03:04:23.697Z,20.39
2017-07-20T03:05:24.049Z,20.39
2017-07-20T03:06:23.763Z,20.41
2017-07-20T03:08:24.117Z,20.41
2017-07-20T03:09:24.161Z,20.48
2017-07-20T03:10:24.172Z,20.52
2017-07-20T03:11:38.802Z,20.5
2017-07-20T03:12:24.224Z,20.55
2017-07-20T03:14:24.272Z,20.47
2017-07-20T03:15:24.300Z,20.48
2017-07-20T03:16:24.341Z,20.41
2017-07-20T03:18:24.393Z,20.43
2017-07-20T03:19:24.405Z,20.38
2017-07-20T03:20:24.115Z,20.41
2017-07-20T03:21:24.461Z,20.39
2017-07-20T03:22:24.497Z,20.41
2017-07-20T03:23:24.494Z,20.51
2017-07-20T03:24:24.549Z,20.39
2017-07-20T03:25:24.553Z,20.39
2017-07-20T03:26:24.588Z,20.47
2017-07-20T03:27:24.594Z,20.41
2017-07-20T03:28:24.641Z,20.38
2017-07-20T03:29:24.669Z,20.52
2017-07-20T03:30:39.283Z,20.5
2017-07-20T03:31:24.723Z,20.51
2017-07-20T03:32:39.332Z,20.42
2017-07-20T03:33:24.767Z,20.52
2017-07-20T03:34:24.793Z,20.39
2017-07-20T03:35:39.423Z,20.43
2017-07-20T03:36:39.448Z,20.38
2017-07-20T03:37:24.850Z,20.39
2017-07-20T03:38:24.595Z,20.42
2017-07-20T03:39:24.918Z,20.39
2017-07-20T03:40:24.966Z,20.38
2017-07-20T03:42:25.000Z,20.42
2017-07-20T03:43:25.041Z,20.51
2017-07-20T03:44:25.049Z,20.5
2017-07-20T03:45:25.082Z,20.42
2017-07-20T03:46:39.706Z,20.43
2017-07-20T03:47:25.106Z,20.51
2017-07-20T03:48:25.153Z,20.39
2017-07-20T03:49:25.161Z,20.41
2017-07-20T03:50:25.210Z,20.38
2017-07-20T03:51:39.815Z,20.42
2017-07-20T03:52:24.957Z,20.39
2017-07-20T03:53:25.284Z,20.41
2017-07-20T03:54:25.304Z,20.43
2017-07-20T03:55:25.335Z,20.42
2017-07-20T03:56:25.043Z,20.42
2017-07-20T03:57:25.394Z,20.47
2017-07-20T03:58:25.399Z,20.39
2017-07-20T03:59:25.448Z,20.39
2017-07-20T04:00:25.459Z,20.5
2017-07-20T04:01:25.485Z,20.42
2017-07-20T04:02:40.107Z,20.38
2017-07-20T04:03:25.513Z,20.54
2017-07-20T04:04:25.566Z,20.5
2017-07-20T04:05:25.590Z,20.51
2017-07-20T04:06:25.610Z,20.52
2017-07-20T04:07:25.622Z,20.43
2017-07-20T04:09:25.684Z,20.36
2017-07-20T04:10:25.716Z,20.23
2017-07-20T04:11:25.746Z,20.26
2017-07-20T04:12:25.747Z,20.23
2017-07-20T04:13:25.783Z,20.2
2017-07-20T04:14:25.839Z,20.26
2017-07-20T04:15:40.440Z,20.26
2017-07-20T04:16:25.884Z,20.26
2017-07-20T04:17:25.901Z,20.26
2017-07-20T04:18:40.516Z,20.33
2017-07-20T04:19:25.944Z,20.39
2017-07-20T04:20:25.961Z,20.38
2017-07-20T04:21:26.006Z,20.42
2017-07-20T04:23:26.056Z,20.48
2017-07-20T04:24:26.084Z,20.54
2017-07-20T04:25:26.094Z,20.62
2017-07-20T04:26:25.826Z,20.61
2017-07-20T04:27:40.747Z,20.66
2017-07-20T04:28:40.777Z,20.61
2017-07-20T04:29:25.896Z,20.55
2017-07-20T04:30:26.226Z,20.5
2017-07-20T04:31:26.257Z,20.48
2017-07-20T04:32:26.279Z,20.48
2017-07-20T04:33:40.903Z,20.52
2017-07-20T04:34:26.336Z,20.5
2017-07-20T04:35:26.363Z,20.51
2017-07-20T04:36:26.385Z,20.5
2017-07-20T04:37:26.409Z,20.5
2017-07-20T04:38:26.424Z,20.47
2017-07-20T04:39:26.466Z,20.43
2017-07-20T04:40:26.485Z,20.5
2017-07-20T04:42:26.539Z,20.48
2017-07-20T04:43:41.164Z,20.51
2017-07-20T04:44:26.583Z,20.64
2017-07-20T04:45:26.662Z,20.67
2017-07-20T04:46:26.638Z,20.73
2017-07-20T04:47:26.669Z,20.73
2017-07-20T04:48:26.707Z,20.79
2017-07-20T04:49:26.719Z,20.95
2017-07-20T04:50:26.739Z,20.98
2017-07-20T04:51:26.761Z,20.95
2017-07-20T04:52:26.799Z,20.98
2017-07-20T04:53:26.829Z,21.09
2017-07-20T04:54:26.860Z,21.13
2017-07-20T04:55:26.860Z,21.25
2017-07-20T04:56:26.917Z,21.34
2017-07-20T04:57:41.526Z,21.37
2017-07-20T04:58:26.938Z,21.32
2017-07-20T04:59:41.577Z,21.4
2017-07-20T05:00:27.010Z,21.62
2017-07-20T05:01:27.039Z,21.69
2017-07-20T05:02:26.741Z,21.86
2017-07-20T05:04:27.107Z,22
2017-07-20T05:05:41.428Z,21.99
2017-07-20T05:06:27.170Z,22.02
2017-07-20T05:07:27.180Z,22.05
2017-07-20T05:08:41.824Z,22.09
2017-07-20T05:09:27.252Z,21.99
2017-07-20T05:10:26.960Z,22.49
2017-07-20T05:11:27.285Z,23.15
2017-07-20T05:13:27.360Z,24.5
2017-07-20T05:14:27.366Z,25.21
2017-07-20T05:16:27.429Z,26.21
2017-07-20T05:17:27.477Z,26.48
2017-07-20T05:18:27.173Z,26.91
2017-07-20T05:19:27.533Z,27.25
2017-07-20T05:21:42.179Z,27.6
2017-07-20T05:22:27.613Z,26.97
2017-07-20T05:23:27.645Z,26.88
2017-07-20T05:24:27.370Z,26.92
2017-07-20T05:25:27.701Z,26.94
2017-07-20T05:26:27.734Z,27.04
2017-07-20T05:27:27.777Z,27.17
2017-07-20T05:28:27.492Z,27.02
2017-07-20T05:29:27.817Z,27.19
2017-07-20T05:32:27.917Z,27.82
2017-07-20T05:33:27.655Z,27.87
2017-07-20T05:34:27.975Z,27.84
2017-07-20T05:35:28.020Z,27.65
2017-07-20T05:36:28.050Z,27.54
2017-07-20T05:37:42.686Z,27.12
2017-07-20T05:38:42.707Z,27.22
2017-07-20T05:39:28.155Z,27.49
2017-07-20T05:40:28.216Z,28.31
2017-07-20T05:41:27.900Z,28.67
2017-07-20T05:42:28.246Z,28.8
2017-07-20T05:44:28.315Z,28.83
2017-07-20T05:45:28.328Z,29.11
2017-07-20T05:46:28.373Z,29.33
2017-07-20T05:47:28.401Z,29.43
2017-07-20T05:48:28.461Z,29.73
2017-07-20T05:49:43.078Z,29.52
2017-07-20T05:50:28.525Z,29.46
2017-07-20T05:51:28.551Z,29.61
2017-07-20T05:52:28.636Z,29.92
2017-07-20T05:53:43.218Z,30.57
2017-07-20T05:54:28.340Z,30.55
2017-07-20T05:55:28.374Z,30.02
2017-07-20T05:56:28.404Z,29.79
2017-07-20T05:57:28.778Z,29.67
2017-07-20T05:58:28.782Z,29.55
2017-07-20T05:59:28.826Z,29.24
2017-07-20T06:00:28.855Z,29.11
2017-07-20T06:01:28.891Z,29.57
2017-07-20T06:02:43.525Z,29.92
2017-07-20T06:03:28.950Z,30.05
2017-07-20T06:04:28.687Z,29.74
2017-07-20T06:05:28.718Z,29.42
2017-07-20T06:06:29.044Z,29.04
2017-07-20T06:08:43.734Z,28.52
2017-07-20T06:09:29.150Z,28.41
2017-07-20T06:10:29.200Z,28.73
2017-07-20T06:11:29.204Z,28.62
2017-07-20T06:12:29.253Z,28.14
2017-07-20T06:13:29.308Z,28.25
2017-07-20T06:14:29.337Z,28.73
2017-07-20T06:15:29.371Z,29.24
2017-07-20T06:16:29.385Z,29.34
2017-07-20T06:17:29.419Z,29.42
2017-07-20T06:18:29.448Z,30.04
2017-07-20T06:20:44.127Z,31.14
2017-07-20T06:21:29.262Z,31.1
2017-07-20T06:23:29.326Z,30.79
2017-07-20T06:24:29.650Z,30.62
2017-07-20T06:25:29.690Z,30.19
2017-07-20T06:27:29.456Z,30.13
2017-07-20T06:28:29.821Z,30.31
2017-07-20T06:29:29.530Z,30.61
2017-07-20T06:30:29.562Z,30.62
2017-07-20T06:31:29.916Z,30.79
2017-07-20T06:32:44.547Z,30.97
2017-07-20T06:33:29.980Z,30.91
2017-07-20T06:34:30.031Z,30.91
2017-07-20T06:35:30.036Z,30.61
2017-07-20T06:36:30.086Z,30.34
2017-07-20T06:37:29.487Z,30.73
2017-07-20T06:38:30.170Z,30.62
2017-07-20T06:39:30.245Z,30.61
2017-07-20T06:40:44.824Z,31.1
2017-07-20T06:41:30.267Z,31.36
2017-07-20T06:42:30.297Z,31.75
2017-07-20T06:43:30.337Z,31.91
2017-07-20T06:44:30.357Z,32.01
2017-07-20T06:45:30.394Z,32.06
2017-07-20T06:46:30.427Z,31.91
2017-07-20T06:47:30.470Z,32.38
2017-07-20T06:48:30.510Z,32.79
2017-07-20T06:49:30.556Z,32.87
2017-07-20T06:50:30.270Z,33.21
2017-07-20T06:51:30.301Z,33.47
2017-07-20T06:52:30.324Z,33.68
2017-07-20T06:53:30.681Z,33.56
2017-07-20T06:54:30.724Z,33.59
2017-07-20T06:55:30.766Z,33.73
2017-07-20T06:56:45.391Z,33.23
2017-07-20T06:57:30.843Z,33.47
2017-07-20T06:58:30.843Z,33.57
2017-07-20T06:59:30.911Z,33.78
2017-07-20T07:00:30.938Z,33.51
2017-07-20T07:03:30.794Z,32.48
2017-07-20T07:04:31.080Z,33.15
2017-07-20T07:05:30.812Z,33.68
2017-07-20T07:06:31.168Z,34.17
2017-07-20T07:07:30.892Z,34.1
2017-07-20T07:08:31.225Z,34.3
2017-07-20T07:11:31.321Z,34.43
2017-07-20T07:12:45.980Z,34.77
2017-07-20T07:13:31.416Z,34.92
2017-07-20T07:14:31.445Z,34.87
2017-07-20T07:15:31.491Z,34.43
2017-07-20T07:16:31.508Z,34.37
2017-07-20T07:17:31.566Z,34.44
2017-07-20T07:18:31.285Z,34.59
2017-07-20T07:19:31.633Z,34.97
2017-07-20T07:20:31.661Z,34.97
2017-07-20T07:21:31.400Z,34.78
2017-07-20T07:22:31.421Z,35.16
2017-07-20T07:24:31.829Z,34.64
2017-07-20T07:25:46.456Z,34.19
2017-07-20T07:26:31.898Z,34.15
2017-07-20T07:27:31.934Z,33.71
2017-07-20T07:28:46.568Z,33.51
2017-07-20T07:30:32.052Z,33.04
2017-07-20T07:31:46.671Z,33.45
2017-07-20T07:32:31.818Z,33.9
2017-07-20T07:33:31.833Z,34.3
2017-07-20T07:34:32.190Z,34.35
2017-07-20T07:35:31.922Z,34.52
2017-07-20T07:36:31.958Z,34.15
2017-07-20T07:37:31.978Z,34.21
2017-07-20T07:38:32.025Z,33.98
2017-07-20T07:39:32.058Z,33.69
2017-07-20T07:40:32.112Z,33.21
2017-07-20T07:41:32.120Z,32.87
2017-07-20T07:42:32.487Z,32.65
2017-07-20T07:43:47.116Z,32.33
2017-07-20T07:45:32.596Z,32.33
2017-07-20T07:46:32.619Z,32.5
2017-07-20T07:47:32.352Z,32.84
2017-07-20T07:48:32.681Z,33.22
2017-07-20T07:49:47.338Z,33.61
2017-07-20T07:51:32.790Z,34.3
2017-07-20T07:52:32.529Z,34.64
2017-07-20T07:53:32.887Z,35.28
2017-07-20T07:54:32.887Z,35.53
2017-07-20T07:55:32.957Z,35.58
2017-07-20T07:56:32.965Z,35.66
2017-07-20T07:57:33.021Z,35.38
2017-07-20T07:58:33.052Z,34.84
2017-07-20T07:59:33.098Z,34.32
2017-07-20T08:00:33.118Z,34.43
2017-07-20T08:01:33.173Z,34.7
2017-07-20T08:02:33.185Z,35.4
2017-07-20T08:03:33.233Z,35.81
2017-07-20T08:04:33.269Z,35.53
2017-07-20T08:05:33.314Z,35.16
2017-07-20T08:06:33.340Z,34.47
2017-07-20T08:07:33.379Z,34.49
2017-07-20T08:08:33.116Z,34.5
2017-07-20T08:11:33.523Z,33.69
2017-07-20T08:13:48.194Z,33.28
2017-07-20T08:14:33.624Z,33.54
2017-07-20T08:15:48.257Z,34.1
2017-07-20T08:16:33.380Z,34.56
2017-07-20T08:17:33.410Z,34.88
2017-07-20T08:18:33.782Z,34.88
2017-07-20T08:19:33.482Z,34.89
2017-07-20T08:20:48.449Z,34.66
2017-07-20T08:21:33.867Z,35.03
2017-07-20T08:22:33.902Z,35.34
2017-07-20T08:23:33.952Z,35.74
2017-07-20T08:24:33.996Z,36.01
2017-07-20T08:25:34.017Z,36.49
2017-07-20T08:26:34.049Z,36.08
2017-07-20T08:27:33.766Z,35.63
2017-07-20T08:28:33.826Z,36.01
2017-07-20T08:29:33.888Z,35.84
2017-07-20T08:30:34.204Z,35.48
2017-07-20T08:31:48.837Z,35.62
2017-07-20T08:32:34.265Z,35.78
2017-07-20T08:33:34.301Z,35.6
2017-07-20T08:34:34.350Z,35.58
2017-07-20T08:35:34.384Z,35.55
2017-07-20T08:36:34.410Z,35.63
2017-07-20T08:37:34.130Z,36.44
2017-07-20T08:38:34.508Z,36.72
2017-07-20T08:39:34.523Z,36.85
2017-07-20T08:40:34.565Z,37.2
2017-07-20T08:41:33.981Z,37.25
2017-07-20T08:42:49.236Z,37.62
2017-07-20T08:43:34.673Z,37.49
2017-07-20T08:44:34.704Z,36.83
2017-07-20T08:45:34.748Z,36.69
2017-07-20T08:46:34.775Z,36.75
2017-07-20T08:48:34.841Z,36.6
2017-07-20T08:49:34.894Z,36.31
2017-07-20T08:50:34.927Z,36.23
2017-07-20T08:51:34.973Z,36.19
2017-07-20T08:52:34.682Z,36.83
2017-07-20T08:53:35.044Z,37.03
2017-07-20T08:54:35.076Z,37.02
2017-07-20T08:55:35.104Z,36.88
2017-07-20T08:56:34.841Z,36.83
2017-07-20T08:57:35.196Z,37.07
2017-07-20T08:58:34.919Z,37.21
2017-07-20T08:59:35.251Z,37.07
2017-07-20T09:00:34.977Z,36.99
2017-07-20T09:01:35.017Z,36.87
2017-07-20T09:02:35.061Z,37.15
2017-07-20T09:03:50.005Z,36.93
2017-07-20T09:04:35.442Z,37.07
2017-07-20T09:05:35.484Z,37.1
2017-07-20T09:06:35.520Z,37.03
2017-07-20T09:07:35.541Z,37
2017-07-20T09:08:35.582Z,37.09
2017-07-20T09:09:35.654Z,37.17
2017-07-20T09:10:35.669Z,37.29
2017-07-20T09:11:35.702Z,37.03
2017-07-20T09:12:35.422Z,36.9
2017-07-20T09:13:35.759Z,36.93
2017-07-20T09:14:35.817Z,36.81
2017-07-20T09:15:35.834Z,37
2017-07-20T09:16:35.888Z,36.71
2017-07-20T09:17:50.514Z,37
2017-07-20T09:18:50.550Z,36.87
2017-07-20T09:19:36.002Z,36.68
2017-07-20T09:20:36.028Z,37.21
2017-07-20T09:21:36.076Z,37.6
2017-07-20T09:22:36.088Z,37.88
2017-07-20T09:23:36.138Z,37.82
2017-07-20T09:24:36.155Z,37.67
2017-07-20T09:26:36.243Z,37.82
2017-07-20T09:27:35.977Z,37.75
2017-07-20T09:28:36.329Z,37.59
2017-07-20T09:29:50.960Z,37.51
2017-07-20T09:30:36.397Z,37.34
2017-07-20T09:31:36.415Z,37.43
2017-07-20T09:32:36.481Z,37.25
2017-07-20T09:33:36.498Z,36.88
2017-07-20T09:34:36.541Z,37.13
2017-07-20T09:35:36.572Z,36.51
2017-07-20T09:36:36.614Z,36.53
2017-07-20T09:37:36.338Z,36.57
2017-07-20T09:38:36.671Z,36.41
2017-07-20T09:39:36.417Z,36.05
2017-07-20T09:40:36.759Z,36.17
2017-07-20T09:41:36.797Z,35.8
2017-07-20T09:42:36.817Z,35.89
2017-07-20T09:43:36.861Z,36.08
2017-07-20T09:44:36.903Z,36.27
2017-07-20T09:45:36.950Z,36.25
2017-07-20T09:46:36.964Z,36.54
2017-07-20T09:47:37.005Z,36.93
2017-07-20T09:48:37.038Z,37.06
2017-07-20T09:49:37.086Z,37.44
2017-07-20T09:50:51.709Z,37.51
2017-07-20T09:51:37.167Z,37.72
2017-07-20T09:52:37.189Z,37.56
2017-07-20T09:53:37.232Z,37.55
2017-07-20T09:54:37.273Z,37.49
2017-07-20T09:55:37.290Z,37.27
2017-07-20T09:56:37.321Z,37.56
2017-07-20T09:57:37.371Z,37.63
2017-07-20T09:58:37.408Z,37.85
2017-07-20T09:59:37.118Z,37.84
2017-07-20T10:00:37.479Z,37.86
2017-07-20T10:01:37.507Z,37.76
2017-07-20T10:02:37.548Z,37.63
2017-07-20T10:03:37.576Z,37.32
2017-07-20T10:04:37.623Z,37.41
2017-07-20T10:05:37.649Z,37.57
2017-07-20T10:06:51.982Z,37.86
2017-07-20T10:07:52.333Z,38.11
2017-07-20T10:08:37.761Z,37.84
2017-07-20T10:09:37.798Z,37.86
2017-07-20T10:10:37.840Z,37.64
2017-07-20T10:11:37.853Z,37.28
2017-07-20T10:12:37.910Z,36.99
2017-07-20T10:13:37.946Z,36.84
2017-07-20T10:14:37.976Z,36.88
2017-07-20T10:15:38.016Z,36.59
2017-07-20T10:16:38.048Z,35.94
2017-07-20T10:18:38.107Z,35.5
2017-07-20T10:19:38.173Z,35.44
2017-07-20T10:20:38.186Z,35.06
2017-07-20T10:22:52.851Z,35.11
2017-07-20T10:24:38.323Z,35.56
2017-07-20T10:25:38.381Z,35.47
2017-07-20T10:26:38.389Z,35.58
2017-07-20T10:27:38.440Z,35.56
2017-07-20T10:28:38.469Z,35.84
2017-07-20T10:29:38.497Z,35.4
2017-07-20T10:31:53.178Z,36.03
2017-07-20T10:32:38.610Z,35.93
2017-07-20T10:33:38.636Z,35.85
2017-07-20T10:34:38.983Z,35.93
2017-07-20T10:36:38.737Z,35.58
2017-07-20T10:37:38.793Z,35.21
2017-07-20T10:40:38.576Z,34.82
2017-07-20T10:41:38.923Z,34.34
2017-07-20T10:42:38.967Z,34.53
2017-07-20T10:43:38.995Z,34.44
2017-07-20T10:44:38.723Z,34.1
2017-07-20T10:45:39.043Z,34.08
2017-07-20T10:46:39.093Z,34.21
2017-07-20T10:47:39.141Z,34.39
2017-07-20T10:48:39.166Z,34.5
2017-07-20T10:49:39.205Z,34.52
2017-07-20T10:50:39.224Z,34.42
2017-07-20T10:51:39.273Z,34.39
2017-07-20T10:53:53.630Z,33.94
2017-07-20T10:56:39.441Z,33.9
2017-07-20T10:57:53.762Z,33.95
2017-07-20T10:58:39.521Z,33.86
2017-07-20T11:00:39.569Z,33.78
2017-07-20T11:01:39.611Z,33.76
2017-07-20T11:03:39.364Z,33.6
2017-07-20T11:04:39.726Z,33.78
2017-07-20T11:05:39.733Z,33.88
2017-07-20T11:06:39.797Z,33.88
2017-07-20T11:07:39.824Z,33.82
2017-07-20T11:08:39.850Z,33.98
2017-07-20T11:09:39.868Z,34.02
2017-07-20T11:10:39.954Z,34.1
2017-07-20T11:11:39.965Z,34
2017-07-20T11:12:39.986Z,34.06
2017-07-20T11:13:40.033Z,34.24
2017-07-20T11:14:40.059Z,34.16
2017-07-20T11:15:40.097Z,34.15
2017-07-20T11:16:40.124Z,34.31
2017-07-20T11:17:40.168Z,34.12
2017-07-20T11:18:40.180Z,34.06
2017-07-20T11:19:39.916Z,34.21
2017-07-20T11:20:39.956Z,34.17
2017-07-20T11:21:39.974Z,34.02
2017-07-20T11:22:40.337Z,33.87
2017-07-20T11:23:40.040Z,33.72
2017-07-20T11:24:40.404Z,33.88
2017-07-20T11:25:55.030Z,34.02
2017-07-20T11:26:40.159Z,34.12
2017-07-20T11:27:39.884Z,34
2017-07-20T11:28:55.122Z,33.97
2017-07-20T11:30:40.285Z,33.86
2017-07-20T11:31:55.241Z,33.57
2017-07-20T11:32:40.660Z,33.53
2017-07-20T11:33:40.695Z,33.47
2017-07-20T11:34:40.718Z,33.42
2017-07-20T11:35:55.372Z,33.45
2017-07-20T11:38:40.874Z,33.57
2017-07-20T11:39:40.905Z,33.51
2017-07-20T11:40:40.926Z,33.57
2017-07-20T11:41:55.564Z,33.51
2017-07-20T11:42:41.007Z,33.61
2017-07-20T11:43:41.026Z,33.72
2017-07-20T11:44:41.068Z,33.94
2017-07-20T11:45:41.103Z,34.03
2017-07-20T11:46:41.143Z,34.06
2017-07-20T11:47:41.177Z,34.1
2017-07-20T11:48:41.187Z,34.28
2017-07-20T11:49:41.226Z,34.08
2017-07-20T11:50:41.273Z,34.12
2017-07-20T11:51:41.302Z,34.13
2017-07-20T11:52:41.327Z,34.02
2017-07-20T11:53:41.371Z,34.09
2017-07-20T11:54:41.084Z,34.03
2017-07-20T11:55:40.840Z,33.97
2017-07-20T11:56:41.515Z,34.06
2017-07-20T11:57:56.102Z,33.84
2017-07-20T11:58:41.526Z,33.87
2017-07-20T11:59:41.575Z,33.84
2017-07-20T12:00:41.609Z,33.81
2017-07-20T12:01:56.244Z,33.72
2017-07-20T12:02:41.659Z,33.72
2017-07-20T12:03:41.411Z,33.76
2017-07-20T12:04:41.722Z,33.75
2017-07-20T12:05:41.777Z,33.6
2017-07-20T12:06:41.783Z,33.56
2017-07-20T12:07:56.439Z,33.81
2017-07-20T12:08:41.879Z,33.9
2017-07-20T12:09:41.886Z,33.86
2017-07-20T12:10:41.938Z,33.87
2017-07-20T12:11:41.950Z,33.75
2017-07-20T12:12:42.211Z,33.56
2017-07-20T12:13:56.625Z,33.59
2017-07-20T12:14:42.074Z,33.53
2017-07-20T12:15:42.111Z,33.78
2017-07-20T12:17:42.173Z,33.68
2017-07-20T12:18:42.190Z,33.63
2017-07-20T12:19:42.243Z,33.76
2017-07-20T12:20:41.955Z,33.94
2017-07-20T12:21:42.303Z,34.08
2017-07-20T12:22:42.334Z,34.28
2017-07-20T12:23:42.371Z,34.19
2017-07-20T12:24:42.382Z,34.1
2017-07-20T12:25:42.491Z,33.71
2017-07-20T12:27:42.182Z,33.88
2017-07-20T12:28:57.134Z,34.03
2017-07-20T12:29:42.574Z,34.13
2017-07-20T12:30:42.601Z,34.15
2017-07-20T12:31:42.334Z,34.1
2017-07-20T12:32:42.668Z,34.08
2017-07-20T12:33:57.291Z,33.82
2017-07-20T12:34:57.336Z,33.47
2017-07-20T12:35:42.754Z,33.26
2017-07-20T12:36:42.490Z,33.04
2017-07-20T12:37:42.813Z,33.16
2017-07-20T12:38:57.468Z,33.32
2017-07-20T12:39:42.905Z,33.42
2017-07-20T12:41:42.968Z,33.14
2017-07-20T12:42:42.994Z,33.31
2017-07-20T12:43:42.728Z,33.29
2017-07-20T12:44:43.066Z,32.89
2017-07-20T12:46:43.139Z,33.06
2017-07-20T12:47:43.174Z,33.03
2017-07-20T12:48:42.874Z,33.04
2017-07-20T12:49:42.902Z,33.19
2017-07-20T12:50:42.954Z,33.12
2017-07-20T12:51:43.341Z,33.11
2017-07-20T12:52:43.323Z,33.11
2017-07-20T12:53:43.059Z,33.14
2017-07-20T12:54:43.073Z,33.01
2017-07-20T12:55:43.123Z,32.93
2017-07-20T12:56:43.136Z,33.03
2017-07-20T12:57:43.518Z,33.06
2017-07-20T12:58:57.814Z,33.19
2017-07-20T12:59:43.549Z,33.19
2017-07-20T13:00:58.190Z,33.18
2017-07-20T13:01:43.612Z,33.14
2017-07-20T13:02:43.357Z,33.34
2017-07-20T13:03:43.666Z,33.19
2017-07-20T13:04:43.732Z,33.11
2017-07-20T13:05:43.432Z,33.23
2017-07-20T13:06:43.788Z,33.06
2017-07-20T13:07:43.501Z,33.16
2017-07-20T13:08:43.860Z,33.21
2017-07-20T13:09:43.891Z,33.19
2017-07-20T13:10:43.911Z,33.21
2017-07-20T13:11:43.940Z,33.16
2017-07-20T13:12:43.982Z,33.31
2017-07-20T13:13:43.718Z,33.19
2017-07-20T13:14:44.032Z,33.29
2017-07-20T13:15:44.091Z,33.06
2017-07-20T13:16:58.716Z,33.14
2017-07-20T13:17:44.148Z,33.16
2017-07-20T13:18:44.169Z,33.23
2017-07-20T13:19:44.222Z,32.97
2017-07-20T13:20:44.227Z,32.92
2017-07-20T13:21:43.965Z,32.99
2017-07-20T13:22:44.288Z,32.99
2017-07-20T13:23:44.346Z,33.12
2017-07-20T13:25:44.405Z,33.11
2017-07-20T13:26:44.437Z,33.09
2017-07-20T13:27:44.476Z,33.09
2017-07-20T13:28:44.498Z,33.12
2017-07-20T13:29:44.525Z,33.15
2017-07-20T13:30:44.569Z,33.29
2017-07-20T13:31:44.603Z,33.09
2017-07-20T13:32:59.239Z,33.09
2017-07-20T13:33:44.652Z,33
2017-07-20T13:34:44.704Z,33.04
2017-07-20T13:36:44.448Z,32.79
2017-07-20T13:38:44.814Z,32.82
2017-07-20T13:39:44.861Z,32.88
2017-07-20T13:40:44.579Z,32.87
2017-07-20T13:41:44.926Z,32.7
2017-07-20T13:42:44.953Z,32.99
2017-07-20T13:43:45.039Z,32.96
2017-07-20T13:44:45.022Z,33.01
2017-07-20T13:45:45.064Z,33
2017-07-20T13:46:44.780Z,32.96
2017-07-20T13:47:45.127Z,32.89
2017-07-20T13:48:59.757Z,32.89
2017-07-20T13:49:44.889Z,32.99
2017-07-20T13:50:59.812Z,33.01
2017-07-20T13:51:45.264Z,32.97
2017-07-20T13:52:44.962Z,32.99
2017-07-20T13:53:45.312Z,32.85
2017-07-20T13:54:45.361Z,32.87
2017-07-20T13:55:45.390Z,32.81
2017-07-20T13:56:45.420Z,32.82
2017-07-20T13:58:00.050Z,32.81
2017-07-20T13:58:45.494Z,32.84
2017-07-20T13:59:45.195Z,32.89
2017-07-20T14:00:45.552Z,32.94
2017-07-20T14:01:45.582Z,32.85